sensor_id;sensor_type;location;lat;lon;timestamp;P1;durP1;ratioP1;P2;durP2;ratioP2
18651;SDS011;9455;54.302;10.124;2024-02-28T00:01:39;20.57;;;10.27;;
18651;SDS011;9455;54.302;10.124;2024-02-28T00:04:14;20.27;;;10.73;;
18651;SDS011;9455;54.302;10.124;2024-02-28T00:06:40;17.50;;;9.10;;
18651;SDS011;9455;54.302;10.124;2024-02-28T00:09:07;16.27;;;9.30;;
18651;SDS011;9455;54.302;10.124;2024-02-28T00:11:34;19.57;;;9.03;;
18651;SDS011;9455;54.302;10.124;2024-02-28T00:14:01;20.43;;;10.23;;
18651;SDS011;9455;54.302;10.124;2024-02-28T00:16:27;17.63;;;10.10;;
18651;SDS011;9455;54.302;10.124;2024-02-28T00:18:55;23.93;;;11.23;;
18651;SDS011;9455;54.302;10.124;2024-02-28T00:21:22;21.73;;;10.87;;
18651;SDS011;9455;54.302;10.124;2024-02-28T00:23:49;24.83;;;11.53;;
18651;SDS011;9455;54.302;10.124;2024-02-28T00:26:15;23.67;;;11.17;;
18651;SDS011;9455;54.302;10.124;2024-02-28T00:28:42;22.27;;;11.53;;
18651;SDS011;9455;54.302;10.124;2024-02-28T00:31:08;27.00;;;12.93;;
18651;SDS011;9455;54.302;10.124;2024-02-28T00:33:35;26.30;;;12.57;;
18651;SDS011;9455;54.302;10.124;2024-02-28T00:36:03;25.53;;;11.83;;
18651;SDS011;9455;54.302;10.124;2024-02-28T00:38:30;25.27;;;12.40;;
18651;SDS011;9455;54.302;10.124;2024-02-28T00:40:57;27.20;;;12.70;;
18651;SDS011;9455;54.302;10.124;2024-02-28T00:43:23;26.57;;;12.63;;
18651;SDS011;9455;54.302;10.124;2024-02-28T00:45:49;26.93;;;12.37;;
18651;SDS011;9455;54.302;10.124;2024-02-28T00:48:16;33.53;;;13.70;;
18651;SDS011;9455;54.302;10.124;2024-02-28T00:50:43;31.90;;;13.77;;
18651;SDS011;9455;54.302;10.124;2024-02-28T00:53:11;29.87;;;13.07;;
18651;SDS011;9455;54.302;10.124;2024-02-28T00:55:39;29.03;;;13.33;;
18651;SDS011;9455;54.302;10.124;2024-02-28T00:58:06;28.93;;;12.80;;
18651;SDS011;9455;54.302;10.124;2024-02-28T01:00:32;33.40;;;14.20;;
18651;SDS011;9455;54.302;10.124;2024-02-28T01:03:00;31.60;;;12.47;;
18651;SDS011;9455;54.302;10.124;2024-02-28T01:05:28;36.23;;;14.83;;
18651;SDS011;9455;54.302;10.124;2024-02-28T01:07:55;32.13;;;14.13;;
18651;SDS011;9455;54.302;10.124;2024-02-28T01:10:23;31.37;;;14.20;;
18651;SDS011;9455;54.302;10.124;2024-02-28T01:12:49;32.33;;;14.23;;
18651;SDS011;9455;54.302;10.124;2024-02-28T01:15:16;33.07;;;13.97;;
18651;SDS011;9455;54.302;10.124;2024-02-28T01:17:43;29.60;;;13.60;;
18651;SDS011;9455;54.302;10.124;2024-02-28T01:20:10;31.70;;;13.70;;
18651;SDS011;9455;54.302;10.124;2024-02-28T01:22:37;34.20;;;15.17;;
18651;SDS011;9455;54.302;10.124;2024-02-28T01:25:03;35.77;;;14.73;;
18651;SDS011;9455;54.302;10.124;2024-02-28T01:27:33;34.53;;;14.53;;
18651;SDS011;9455;54.302;10.124;2024-02-28T01:30:00;34.87;;;15.43;;
18651;SDS011;9455;54.302;10.124;2024-02-28T01:32:27;38.63;;;15.70;;
18651;SDS011;9455;54.302;10.124;2024-02-28T01:34:54;34.67;;;14.53;;
18651;SDS011;9455;54.302;10.124;2024-02-28T01:37:21;29.07;;;13.50;;
18651;SDS011;9455;54.302;10.124;2024-02-28T01:39:47;28.63;;;13.00;;
18651;SDS011;9455;54.302;10.124;2024-02-28T01:42:14;28.40;;;12.53;;
18651;SDS011;9455;54.302;10.124;2024-02-28T01:44:43;28.27;;;12.67;;
18651;SDS011;9455;54.302;10.124;2024-02-28T01:47:12;30.33;;;12.80;;
18651;SDS011;9455;54.302;10.124;2024-02-28T01:49:40;31.23;;;12.60;;
18651;SDS011;9455;54.302;10.124;2024-02-28T01:52:08;30.23;;;11.80;;
18651;SDS011;9455;54.302;10.124;2024-02-28T01:54:35;28.73;;;13.07;;
18651;SDS011;9455;54.302;10.124;2024-02-28T01:57:02;31.20;;;12.90;;
18651;SDS011;9455;54.302;10.124;2024-02-28T01:59:29;28.20;;;12.90;;
18651;SDS011;9455;54.302;10.124;2024-02-28T02:01:58;29.67;;;13.07;;
18651;SDS011;9455;54.302;10.124;2024-02-28T02:04:25;24.60;;;12.77;;
18651;SDS011;9455;54.302;10.124;2024-02-28T02:06:52;29.00;;;12.60;;
18651;SDS011;9455;54.302;10.124;2024-02-28T02:09:19;33.50;;;13.13;;
18651;SDS011;9455;54.302;10.124;2024-02-28T02:11:46;29.87;;;12.63;;
18651;SDS011;9455;54.302;10.124;2024-02-28T02:14:12;27.77;;;12.20;;
18651;SDS011;9455;54.302;10.124;2024-02-28T02:16:39;29.93;;;11.57;;
18651;SDS011;9455;54.302;10.124;2024-02-28T02:19:07;20.17;;;10.03;;
18651;SDS011;9455;54.302;10.124;2024-02-28T02:21:37;23.33;;;10.40;;
18651;SDS011;9455;54.302;10.124;2024-02-28T02:24:08;19.23;;;9.07;;
18651;SDS011;9455;54.302;10.124;2024-02-28T02:26:35;23.13;;;9.43;;
18651;SDS011;9455;54.302;10.124;2024-02-28T02:29:02;18.63;;;9.80;;
18651;SDS011;9455;54.302;10.124;2024-02-28T02:31:28;23.53;;;9.63;;
18651;SDS011;9455;54.302;10.124;2024-02-28T02:33:55;22.23;;;10.13;;
18651;SDS011;9455;54.302;10.124;2024-02-28T02:36:22;20.47;;;9.53;;
18651;SDS011;9455;54.302;10.124;2024-02-28T02:38:48;20.60;;;9.03;;
18651;SDS011;9455;54.302;10.124;2024-02-28T02:41:16;18.43;;;9.10;;
18651;SDS011;9455;54.302;10.124;2024-02-28T02:43:44;16.60;;;7.67;;
18651;SDS011;9455;54.302;10.124;2024-02-28T02:46:11;17.77;;;8.30;;
18651;SDS011;9455;54.302;10.124;2024-02-28T02:48:37;20.50;;;8.80;;
18651;SDS011;9455;54.302;10.124;2024-02-28T02:51:04;20.07;;;8.90;;
18651;SDS011;9455;54.302;10.124;2024-02-28T02:53:31;17.40;;;8.73;;
18651;SDS011;9455;54.302;10.124;2024-02-28T02:55:58;18.93;;;8.20;;
18651;SDS011;9455;54.302;10.124;2024-02-28T02:58:26;19.70;;;8.80;;
18651;SDS011;9455;54.302;10.124;2024-02-28T03:00:53;22.17;;;8.57;;
18651;SDS011;9455;54.302;10.124;2024-02-28T03:03:19;19.10;;;8.03;;
18651;SDS011;9455;54.302;10.124;2024-02-28T03:05:46;25.83;;;8.97;;
18651;SDS011;9455;54.302;10.124;2024-02-28T03:08:12;18.40;;;8.03;;
18651;SDS011;9455;54.302;10.124;2024-02-28T03:10:39;18.23;;;8.43;;
18651;SDS011;9455;54.302;10.124;2024-02-28T03:13:05;24.87;;;8.60;;
18651;SDS011;9455;54.302;10.124;2024-02-28T03:15:34;19.80;;;8.97;;
18651;SDS011;9455;54.302;10.124;2024-02-28T03:18:00;18.93;;;8.03;;
18651;SDS011;9455;54.302;10.124;2024-02-28T03:20:27;16.77;;;8.00;;
18651;SDS011;9455;54.302;10.124;2024-02-28T03:22:53;22.77;;;8.20;;
18651;SDS011;9455;54.302;10.124;2024-02-28T03:25:20;20.43;;;7.97;;
18651;SDS011;9455;54.302;10.124;2024-02-28T03:27:47;18.80;;;9.07;;
18651;SDS011;9455;54.302;10.124;2024-02-28T03:30:13;20.47;;;8.40;;
18651;SDS011;9455;54.302;10.124;2024-02-28T03:32:41;20.37;;;8.27;;
18651;SDS011;9455;54.302;10.124;2024-02-28T03:35:08;18.53;;;8.10;;
18651;SDS011;9455;54.302;10.124;2024-02-28T03:37:35;21.73;;;8.27;;
18651;SDS011;9455;54.302;10.124;2024-02-28T03:40:01;21.00;;;8.57;;
18651;SDS011;9455;54.302;10.124;2024-02-28T03:42:29;18.77;;;7.60;;
18651;SDS011;9455;54.302;10.124;2024-02-28T03:44:56;15.23;;;7.27;;
18651;SDS011;9455;54.302;10.124;2024-02-28T03:47:22;16.60;;;8.30;;
18651;SDS011;9455;54.302;10.124;2024-02-28T03:49:50;15.80;;;7.40;;
18651;SDS011;9455;54.302;10.124;2024-02-28T03:52:17;20.20;;;8.53;;
18651;SDS011;9455;54.302;10.124;2024-02-28T03:54:44;21.07;;;9.03;;
18651;SDS011;9455;54.302;10.124;2024-02-28T03:57:10;21.23;;;8.50;;
18651;SDS011;9455;54.302;10.124;2024-02-28T03:59:37;21.07;;;8.43;;
18651;SDS011;9455;54.302;10.124;2024-02-28T04:02:03;18.97;;;8.17;;
18651;SDS011;9455;54.302;10.124;2024-02-28T04:04:30;19.20;;;8.30;;
18651;SDS011;9455;54.302;10.124;2024-02-28T04:06:58;16.10;;;7.77;;
18651;SDS011;9455;54.302;10.124;2024-02-28T04:09:25;20.13;;;8.23;;
18651;SDS011;9455;54.302;10.124;2024-02-28T04:11:52;21.73;;;8.87;;
18651;SDS011;9455;54.302;10.124;2024-02-28T04:14:18;17.20;;;8.00;;
18651;SDS011;9455;54.302;10.124;2024-02-28T04:16:45;20.73;;;8.43;;
18651;SDS011;9455;54.302;10.124;2024-02-28T04:19:12;17.97;;;7.67;;
18651;SDS011;9455;54.302;10.124;2024-02-28T04:21:39;19.00;;;8.47;;
18651;SDS011;9455;54.302;10.124;2024-02-28T04:24:07;19.40;;;8.37;;
18651;SDS011;9455;54.302;10.124;2024-02-28T04:26:35;16.37;;;8.70;;
18651;SDS011;9455;54.302;10.124;2024-02-28T04:29:02;18.60;;;8.23;;
18651;SDS011;9455;54.302;10.124;2024-02-28T04:31:30;22.00;;;8.80;;
18651;SDS011;9455;54.302;10.124;2024-02-28T04:33:57;19.13;;;8.50;;
18651;SDS011;9455;54.302;10.124;2024-02-28T04:36:23;18.67;;;8.93;;
18651;SDS011;9455;54.302;10.124;2024-02-28T04:38:50;19.90;;;8.73;;
18651;SDS011;9455;54.302;10.124;2024-02-28T04:41:18;18.17;;;8.33;;
18651;SDS011;9455;54.302;10.124;2024-02-28T04:43:44;18.77;;;8.93;;
18651;SDS011;9455;54.302;10.124;2024-02-28T04:46:11;18.67;;;9.27;;
18651;SDS011;9455;54.302;10.124;2024-02-28T04:48:37;20.17;;;8.30;;
18651;SDS011;9455;54.302;10.124;2024-02-28T04:51:04;19.83;;;8.20;;
18651;SDS011;9455;54.302;10.124;2024-02-28T04:53:31;20.33;;;8.13;;
18651;SDS011;9455;54.302;10.124;2024-02-28T04:55:57;20.30;;;8.60;;
18651;SDS011;9455;54.302;10.124;2024-02-28T04:58:25;20.20;;;8.17;;
18651;SDS011;9455;54.302;10.124;2024-02-28T05:00:52;21.70;;;9.50;;
18651;SDS011;9455;54.302;10.124;2024-02-28T05:03:18;21.87;;;8.83;;
18651;SDS011;9455;54.302;10.124;2024-02-28T05:05:47;17.83;;;8.43;;
18651;SDS011;9455;54.302;10.124;2024-02-28T05:08:14;19.17;;;9.23;;
18651;SDS011;9455;54.302;10.124;2024-02-28T05:10:40;22.73;;;9.27;;
18651;SDS011;9455;54.302;10.124;2024-02-28T05:13:07;24.30;;;9.23;;
18651;SDS011;9455;54.302;10.124;2024-02-28T05:15:35;17.57;;;8.47;;
18651;SDS011;9455;54.302;10.124;2024-02-28T05:18:02;27.07;;;9.80;;
18651;SDS011;9455;54.302;10.124;2024-02-28T05:20:28;22.50;;;9.43;;
18651;SDS011;9455;54.302;10.124;2024-02-28T05:22:55;22.33;;;9.70;;
18651;SDS011;9455;54.302;10.124;2024-02-28T05:25:22;17.30;;;8.27;;
18651;SDS011;9455;54.302;10.124;2024-02-28T05:27:48;18.33;;;9.13;;
18651;SDS011;9455;54.302;10.124;2024-02-28T05:30:15;21.57;;;9.33;;
18651;SDS011;9455;54.302;10.124;2024-02-28T05:32:43;24.33;;;10.07;;
18651;SDS011;9455;54.302;10.124;2024-02-28T05:35:10;21.33;;;8.90;;
18651;SDS011;9455;54.302;10.124;2024-02-28T05:37:37;27.47;;;9.83;;
18651;SDS011;9455;54.302;10.124;2024-02-28T05:40:04;22.60;;;9.90;;
18651;SDS011;9455;54.302;10.124;2024-02-28T05:42:34;22.93;;;9.23;;
18651;SDS011;9455;54.302;10.124;2024-02-28T05:45:00;28.17;;;9.77;;
18651;SDS011;9455;54.302;10.124;2024-02-28T05:47:27;22.80;;;9.97;;
18651;SDS011;9455;54.302;10.124;2024-02-28T05:49:56;25.13;;;10.07;;
18651;SDS011;9455;54.302;10.124;2024-02-28T05:52:23;22.80;;;9.97;;
18651;SDS011;9455;54.302;10.124;2024-02-28T05:54:50;20.60;;;9.83;;
18651;SDS011;9455;54.302;10.124;2024-02-28T05:57:17;28.40;;;10.83;;
18651;SDS011;9455;54.302;10.124;2024-02-28T05:59:44;26.67;;;9.90;;
18651;SDS011;9455;54.302;10.124;2024-02-28T06:02:10;27.47;;;10.93;;
18651;SDS011;9455;54.302;10.124;2024-02-28T06:04:37;28.47;;;11.37;;
18651;SDS011;9455;54.302;10.124;2024-02-28T06:07:05;33.23;;;12.20;;
18651;SDS011;9455;54.302;10.124;2024-02-28T06:09:32;27.67;;;11.00;;
18651;SDS011;9455;54.302;10.124;2024-02-28T06:11:59;25.67;;;11.73;;
18651;SDS011;9455;54.302;10.124;2024-02-28T06:14:26;32.63;;;11.97;;
18651;SDS011;9455;54.302;10.124;2024-02-28T06:16:53;31.37;;;11.97;;
18651;SDS011;9455;54.302;10.124;2024-02-28T06:19:20;25.67;;;11.83;;
18651;SDS011;9455;54.302;10.124;2024-02-28T06:21:46;30.80;;;12.93;;
18651;SDS011;9455;54.302;10.124;2024-02-28T06:24:14;52.40;;;15.20;;
18651;SDS011;9455;54.302;10.124;2024-02-28T06:26:41;158.00;;;22.60;;
18651;SDS011;9455;54.302;10.124;2024-02-28T06:29:08;78.30;;;19.20;;
18651;SDS011;9455;54.302;10.124;2024-02-28T06:31:35;42.83;;;14.80;;
18651;SDS011;9455;54.302;10.124;2024-02-28T06:34:02;97.40;;;17.63;;
18651;SDS011;9455;54.302;10.124;2024-02-28T06:36:29;61.37;;;17.33;;
18651;SDS011;9455;54.302;10.124;2024-02-28T06:38:56;63.20;;;17.17;;
18651;SDS011;9455;54.302;10.124;2024-02-28T06:41:24;44.77;;;15.57;;
18651;SDS011;9455;54.302;10.124;2024-02-28T06:43:50;39.97;;;13.90;;
18651;SDS011;9455;54.302;10.124;2024-02-28T06:46:17;41.53;;;14.67;;
18651;SDS011;9455;54.302;10.124;2024-02-28T06:48:44;44.87;;;15.67;;
18651;SDS011;9455;54.302;10.124;2024-02-28T06:51:10;40.97;;;14.83;;
18651;SDS011;9455;54.302;10.124;2024-02-28T06:53:37;37.13;;;14.93;;
18651;SDS011;9455;54.302;10.124;2024-02-28T06:56:04;37.30;;;14.13;;
18651;SDS011;9455;54.302;10.124;2024-02-28T06:58:32;41.57;;;14.93;;
18651;SDS011;9455;54.302;10.124;2024-02-28T07:00:59;44.90;;;14.30;;
18651;SDS011;9455;54.302;10.124;2024-02-28T07:03:25;39.77;;;13.77;;
18651;SDS011;9455;54.302;10.124;2024-02-28T07:05:52;39.50;;;14.27;;
18651;SDS011;9455;54.302;10.124;2024-02-28T07:08:20;39.93;;;14.30;;
18651;SDS011;9455;54.302;10.124;2024-02-28T07:10:47;35.70;;;14.53;;
18651;SDS011;9455;54.302;10.124;2024-02-28T07:13:18;38.83;;;14.73;;
18651;SDS011;9455;54.302;10.124;2024-02-28T07:15:46;41.77;;;14.40;;
18651;SDS011;9455;54.302;10.124;2024-02-28T07:18:14;34.07;;;14.20;;
18651;SDS011;9455;54.302;10.124;2024-02-28T07:20:40;41.77;;;14.50;;
18651;SDS011;9455;54.302;10.124;2024-02-28T07:23:07;58.87;;;16.60;;
18651;SDS011;9455;54.302;10.124;2024-02-28T07:25:34;43.03;;;15.30;;
18651;SDS011;9455;54.302;10.124;2024-02-28T07:28:00;49.37;;;16.87;;
18651;SDS011;9455;54.302;10.124;2024-02-28T07:30:27;46.90;;;15.53;;
18651;SDS011;9455;54.302;10.124;2024-02-28T07:32:55;53.63;;;16.13;;
18651;SDS011;9455;54.302;10.124;2024-02-28T07:35:22;46.87;;;16.73;;
18651;SDS011;9455;54.302;10.124;2024-02-28T07:37:49;54.37;;;16.33;;
18651;SDS011;9455;54.302;10.124;2024-02-28T07:40:15;45.40;;;17.17;;
18651;SDS011;9455;54.302;10.124;2024-02-28T07:42:43;44.43;;;15.37;;
18651;SDS011;9455;54.302;10.124;2024-02-28T07:45:10;48.40;;;16.23;;
18651;SDS011;9455;54.302;10.124;2024-02-28T07:47:36;42.20;;;16.17;;
18651;SDS011;9455;54.302;10.124;2024-02-28T07:50:05;45.60;;;16.57;;
18651;SDS011;9455;54.302;10.124;2024-02-28T07:52:32;51.73;;;16.70;;
18651;SDS011;9455;54.302;10.124;2024-02-28T07:55:00;49.03;;;16.07;;
18651;SDS011;9455;54.302;10.124;2024-02-28T07:57:27;49.43;;;17.00;;
18651;SDS011;9455;54.302;10.124;2024-02-28T07:59:53;44.97;;;15.97;;
18651;SDS011;9455;54.302;10.124;2024-02-28T08:02:21;42.43;;;15.27;;
18651;SDS011;9455;54.302;10.124;2024-02-28T08:04:47;51.47;;;16.80;;
18651;SDS011;9455;54.302;10.124;2024-02-28T08:07:17;42.47;;;16.20;;
18651;SDS011;9455;54.302;10.124;2024-02-28T08:09:43;55.23;;;16.90;;
18651;SDS011;9455;54.302;10.124;2024-02-28T08:12:10;49.73;;;16.43;;
18651;SDS011;9455;54.302;10.124;2024-02-28T08:14:37;49.20;;;17.97;;
18651;SDS011;9455;54.302;10.124;2024-02-28T08:17:03;47.77;;;16.70;;
18651;SDS011;9455;54.302;10.124;2024-02-28T08:19:30;43.00;;;15.97;;
18651;SDS011;9455;54.302;10.124;2024-02-28T08:21:57;41.37;;;16.07;;
18651;SDS011;9455;54.302;10.124;2024-02-28T08:24:25;46.93;;;16.37;;
18651;SDS011;9455;54.302;10.124;2024-02-28T08:26:52;41.03;;;16.77;;
18651;SDS011;9455;54.302;10.124;2024-02-28T08:29:18;43.23;;;16.10;;
18651;SDS011;9455;54.302;10.124;2024-02-28T08:31:45;43.57;;;15.23;;
18651;SDS011;9455;54.302;10.124;2024-02-28T08:34:12;43.13;;;16.53;;
18651;SDS011;9455;54.302;10.124;2024-02-28T08:36:38;43.70;;;17.47;;
18651;SDS011;9455;54.302;10.124;2024-02-28T08:39:05;39.83;;;15.33;;
18651;SDS011;9455;54.302;10.124;2024-02-28T08:41:35;42.90;;;15.90;;
18651;SDS011;9455;54.302;10.124;2024-02-28T08:44:02;43.10;;;16.03;;
18651;SDS011;9455;54.302;10.124;2024-02-28T08:46:29;39.77;;;15.43;;
18651;SDS011;9455;54.302;10.124;2024-02-28T08:48:56;41.37;;;15.00;;
18651;SDS011;9455;54.302;10.124;2024-02-28T08:51:22;38.97;;;16.37;;
18651;SDS011;9455;54.302;10.124;2024-02-28T08:53:49;46.77;;;16.87;;
18651;SDS011;9455;54.302;10.124;2024-02-28T08:56:17;45.17;;;15.90;;
18651;SDS011;9455;54.302;10.124;2024-02-28T08:58:45;51.17;;;18.40;;
18651;SDS011;9455;54.302;10.124;2024-02-28T09:01:13;47.00;;;16.87;;
18651;SDS011;9455;54.302;10.124;2024-02-28T09:03:41;42.23;;;14.87;;
18651;SDS011;9455;54.302;10.124;2024-02-28T09:06:07;40.30;;;15.63;;
18651;SDS011;9455;54.302;10.124;2024-02-28T09:08:34;43.47;;;15.97;;
18651;SDS011;9455;54.302;10.124;2024-02-28T09:11:00;44.93;;;17.60;;
18651;SDS011;9455;54.302;10.124;2024-02-28T09:13:27;42.60;;;16.77;;
18651;SDS011;9455;54.302;10.124;2024-02-28T09:15:56;41.10;;;15.97;;
18651;SDS011;9455;54.302;10.124;2024-02-28T09:18:23;45.20;;;16.70;;
18651;SDS011;9455;54.302;10.124;2024-02-28T09:20:50;39.03;;;14.67;;
18651;SDS011;9455;54.302;10.124;2024-02-28T09:23:16;41.97;;;15.53;;
18651;SDS011;9455;54.302;10.124;2024-02-28T09:25:43;42.23;;;15.40;;
18651;SDS011;9455;54.302;10.124;2024-02-28T09:28:10;43.60;;;15.37;;
18651;SDS011;9455;54.302;10.124;2024-02-28T09:30:38;42.93;;;14.63;;
18651;SDS011;9455;54.302;10.124;2024-02-28T09:33:07;47.60;;;15.50;;
18651;SDS011;9455;54.302;10.124;2024-02-28T09:35:34;75.83;;;17.70;;
18651;SDS011;9455;54.302;10.124;2024-02-28T09:38:01;41.93;;;15.60;;
18651;SDS011;9455;54.302;10.124;2024-02-28T09:40:28;238.87;;;26.63;;
18651;SDS011;9455;54.302;10.124;2024-02-28T09:42:56;65.63;;;18.00;;
18651;SDS011;9455;54.302;10.124;2024-02-28T09:45:27;55.80;;;17.60;;
18651;SDS011;9455;54.302;10.124;2024-02-28T09:47:55;271.63;;;31.67;;
18651;SDS011;9455;54.302;10.124;2024-02-28T09:50:24;58.27;;;17.80;;
18651;SDS011;9455;54.302;10.124;2024-02-28T09:52:52;39.80;;;14.90;;
18651;SDS011;9455;54.302;10.124;2024-02-28T09:55:19;87.77;;;18.27;;
18651;SDS011;9455;54.302;10.124;2024-02-28T09:57:46;40.03;;;16.10;;
18651;SDS011;9455;54.302;10.124;2024-02-28T10:00:14;35.03;;;14.73;;
18651;SDS011;9455;54.302;10.124;2024-02-28T10:02:44;42.13;;;15.70;;
18651;SDS011;9455;54.302;10.124;2024-02-28T10:05:13;48.83;;;16.33;;
18651;SDS011;9455;54.302;10.124;2024-02-28T10:07:41;42.17;;;15.63;;
18651;SDS011;9455;54.302;10.124;2024-02-28T10:10:08;44.93;;;14.77;;
18651;SDS011;9455;54.302;10.124;2024-02-28T10:12:35;62.00;;;18.13;;
18651;SDS011;9455;54.302;10.124;2024-02-28T10:15:03;79.93;;;20.60;;
18651;SDS011;9455;54.302;10.124;2024-02-28T10:17:30;152.07;;;26.10;;
18651;SDS011;9455;54.302;10.124;2024-02-28T10:19:57;41.23;;;15.70;;
18651;SDS011;9455;54.302;10.124;2024-02-28T10:22:24;39.73;;;15.37;;
18651;SDS011;9455;54.302;10.124;2024-02-28T10:24:57;73.67;;;17.50;;
18651;SDS011;9455;54.302;10.124;2024-02-28T10:27:24;54.03;;;16.23;;
18651;SDS011;9455;54.302;10.124;2024-02-28T10:29:51;37.23;;;14.57;;
18651;SDS011;9455;54.302;10.124;2024-02-28T10:32:16;73.23;;;18.70;;
18651;SDS011;9455;54.302;10.124;2024-02-28T10:34:43;86.43;;;19.53;;
18651;SDS011;9455;54.302;10.124;2024-02-28T10:37:10;37.90;;;15.23;;
18651;SDS011;9455;54.302;10.124;2024-02-28T10:39:38;34.27;;;14.17;;
18651;SDS011;9455;54.302;10.124;2024-02-28T10:42:07;38.70;;;15.47;;
18651;SDS011;9455;54.302;10.124;2024-02-28T10:44:35;51.60;;;16.30;;
18651;SDS011;9455;54.302;10.124;2024-02-28T10:47:02;34.57;;;14.10;;
18651;SDS011;9455;54.302;10.124;2024-02-28T10:49:30;38.77;;;15.23;;
18651;SDS011;9455;54.302;10.124;2024-02-28T10:51:57;39.63;;;15.17;;
18651;SDS011;9455;54.302;10.124;2024-02-28T10:54:25;34.47;;;13.67;;
18651;SDS011;9455;54.302;10.124;2024-02-28T10:56:56;38.67;;;15.00;;
18651;SDS011;9455;54.302;10.124;2024-02-28T10:59:25;34.33;;;14.37;;
18651;SDS011;9455;54.302;10.124;2024-02-28T11:01:56;38.60;;;15.07;;
18651;SDS011;9455;54.302;10.124;2024-02-28T11:04:22;34.67;;;14.37;;
18651;SDS011;9455;54.302;10.124;2024-02-28T11:06:50;39.70;;;15.43;;
18651;SDS011;9455;54.302;10.124;2024-02-28T11:09:20;47.67;;;16.97;;
18651;SDS011;9455;54.302;10.124;2024-02-28T11:11:51;43.27;;;15.83;;
18651;SDS011;9455;54.302;10.124;2024-02-28T11:14:19;42.80;;;15.80;;
18651;SDS011;9455;54.302;10.124;2024-02-28T11:16:58;37.33;;;15.37;;
18651;SDS011;9455;54.302;10.124;2024-02-28T11:19:27;41.27;;;15.70;;
18651;SDS011;9455;54.302;10.124;2024-02-28T11:21:54;34.53;;;14.10;;
18651;SDS011;9455;54.302;10.124;2024-02-28T11:24:25;41.40;;;15.17;;
18651;SDS011;9455;54.302;10.124;2024-02-28T11:26:55;39.43;;;13.93;;
18651;SDS011;9455;54.302;10.124;2024-02-28T11:29:23;40.77;;;15.60;;
18651;SDS011;9455;54.302;10.124;2024-02-28T11:31:53;37.07;;;14.50;;
18651;SDS011;9455;54.302;10.124;2024-02-28T11:34:19;35.97;;;14.20;;
18651;SDS011;9455;54.302;10.124;2024-02-28T11:36:47;44.60;;;16.37;;
18651;SDS011;9455;54.302;10.124;2024-02-28T11:39:14;36.57;;;14.43;;
18651;SDS011;9455;54.302;10.124;2024-02-28T11:41:41;39.07;;;15.03;;
18651;SDS011;9455;54.302;10.124;2024-02-28T11:44:11;40.57;;;15.13;;
18651;SDS011;9455;54.302;10.124;2024-02-28T11:46:38;49.50;;;15.97;;
18651;SDS011;9455;54.302;10.124;2024-02-28T11:49:06;43.10;;;15.67;;
18651;SDS011;9455;54.302;10.124;2024-02-28T11:51:32;45.67;;;15.50;;
18651;SDS011;9455;54.302;10.124;2024-02-28T11:54:00;41.33;;;16.27;;
18651;SDS011;9455;54.302;10.124;2024-02-28T11:56:27;47.33;;;18.10;;
18651;SDS011;9455;54.302;10.124;2024-02-28T11:58:54;46.37;;;15.57;;
18651;SDS011;9455;54.302;10.124;2024-02-28T12:01:31;43.47;;;16.20;;
18651;SDS011;9455;54.302;10.124;2024-02-28T12:04:02;44.97;;;16.77;;
18651;SDS011;9455;54.302;10.124;2024-02-28T12:06:31;49.67;;;18.13;;
18651;SDS011;9455;54.302;10.124;2024-02-28T12:08:58;46.60;;;16.70;;
18651;SDS011;9455;54.302;10.124;2024-02-28T12:11:26;46.07;;;16.70;;
18651;SDS011;9455;54.302;10.124;2024-02-28T12:13:54;51.97;;;17.50;;
18651;SDS011;9455;54.302;10.124;2024-02-28T12:16:22;52.20;;;16.50;;
18651;SDS011;9455;54.302;10.124;2024-02-28T12:18:49;46.30;;;17.00;;
18651;SDS011;9455;54.302;10.124;2024-02-28T12:21:15;42.80;;;15.20;;
18651;SDS011;9455;54.302;10.124;2024-02-28T12:23:44;49.97;;;17.63;;
18651;SDS011;9455;54.302;10.124;2024-02-28T12:26:10;41.13;;;14.67;;
18651;SDS011;9455;54.302;10.124;2024-02-28T12:28:37;47.27;;;15.67;;
18651;SDS011;9455;54.302;10.124;2024-02-28T12:31:04;46.23;;;15.40;;
18651;SDS011;9455;54.302;10.124;2024-02-28T12:33:33;37.80;;;14.17;;
18651;SDS011;9455;54.302;10.124;2024-02-28T12:36:00;40.83;;;15.13;;
18651;SDS011;9455;54.302;10.124;2024-02-28T12:38:28;42.70;;;14.87;;
18651;SDS011;9455;54.302;10.124;2024-02-28T12:40:56;42.07;;;15.90;;
18651;SDS011;9455;54.302;10.124;2024-02-28T12:43:23;41.50;;;15.43;;
18651;SDS011;9455;54.302;10.124;2024-02-28T12:45:50;48.10;;;16.63;;
18651;SDS011;9455;54.302;10.124;2024-02-28T12:48:17;33.77;;;13.73;;
18651;SDS011;9455;54.302;10.124;2024-02-28T12:50:44;38.63;;;13.30;;
18651;SDS011;9455;54.302;10.124;2024-02-28T12:53:10;49.73;;;14.03;;
18651;SDS011;9455;54.302;10.124;2024-02-28T12:55:37;97.87;;;18.37;;
18651;SDS011;9455;54.302;10.124;2024-02-28T12:58:05;52.70;;;14.60;;
18651;SDS011;9455;54.302;10.124;2024-02-28T13:00:32;41.17;;;15.70;;
18651;SDS011;9455;54.302;10.124;2024-02-28T13:02:59;45.30;;;16.33;;
18651;SDS011;9455;54.302;10.124;2024-02-28T13:05:25;35.80;;;14.87;;
18651;SDS011;9455;54.302;10.124;2024-02-28T13:07:52;37.30;;;14.77;;
18651;SDS011;9455;54.302;10.124;2024-02-28T13:10:18;42.43;;;15.57;;
18651;SDS011;9455;54.302;10.124;2024-02-28T13:12:47;41.70;;;14.70;;
18651;SDS011;9455;54.302;10.124;2024-02-28T13:15:15;42.67;;;15.40;;
18651;SDS011;9455;54.302;10.124;2024-02-28T13:17:42;41.33;;;15.07;;
18651;SDS011;9455;54.302;10.124;2024-02-28T13:20:12;46.03;;;16.93;;
18651;SDS011;9455;54.302;10.124;2024-02-28T13:22:38;46.80;;;17.70;;
18651;SDS011;9455;54.302;10.124;2024-02-28T13:25:05;56.20;;;16.80;;
18651;SDS011;9455;54.302;10.124;2024-02-28T13:27:32;51.93;;;17.47;;
18651;SDS011;9455;54.302;10.124;2024-02-28T13:29:59;45.37;;;16.63;;
18651;SDS011;9455;54.302;10.124;2024-02-28T13:32:27;47.77;;;17.07;;
18651;SDS011;9455;54.302;10.124;2024-02-28T13:34:53;49.43;;;17.43;;
18651;SDS011;9455;54.302;10.124;2024-02-28T13:37:20;50.57;;;17.90;;
18651;SDS011;9455;54.302;10.124;2024-02-28T13:39:46;51.40;;;16.97;;
18651;SDS011;9455;54.302;10.124;2024-02-28T13:42:16;43.77;;;16.10;;
18651;SDS011;9455;54.302;10.124;2024-02-28T13:44:45;50.80;;;18.13;;
18651;SDS011;9455;54.302;10.124;2024-02-28T13:47:11;51.40;;;17.87;;
18651;SDS011;9455;54.302;10.124;2024-02-28T13:49:41;48.97;;;18.37;;
18651;SDS011;9455;54.302;10.124;2024-02-28T13:52:07;68.90;;;21.83;;
18651;SDS011;9455;54.302;10.124;2024-02-28T13:54:34;57.43;;;19.17;;
18651;SDS011;9455;54.302;10.124;2024-02-28T13:57:01;55.40;;;16.87;;
18651;SDS011;9455;54.302;10.124;2024-02-28T13:59:29;59.47;;;18.90;;
18651;SDS011;9455;54.302;10.124;2024-02-28T14:01:55;52.23;;;16.57;;
18651;SDS011;9455;54.302;10.124;2024-02-28T14:04:22;52.63;;;16.57;;
18651;SDS011;9455;54.302;10.124;2024-02-28T14:06:50;47.13;;;16.97;;
18651;SDS011;9455;54.302;10.124;2024-02-28T14:09:16;43.77;;;16.97;;
18651;SDS011;9455;54.302;10.124;2024-02-28T14:11:43;50.27;;;16.93;;
18651;SDS011;9455;54.302;10.124;2024-02-28T14:14:10;42.57;;;15.90;;
18651;SDS011;9455;54.302;10.124;2024-02-28T14:16:37;40.97;;;14.67;;
18651;SDS011;9455;54.302;10.124;2024-02-28T14:19:04;39.80;;;15.03;;
18651;SDS011;9455;54.302;10.124;2024-02-28T14:21:31;42.23;;;15.33;;
18651;SDS011;9455;54.302;10.124;2024-02-28T14:23:59;42.47;;;14.70;;